Time;durP1;ratioP1;P1;durP2;ratioP2;P2;SDS_P1;SDS_P2;PMS_P1;PMS_P2;Temp;Humidity;BMP_temperature;BMP_pressure;BME280_temperature;BME280_humidity;BME280_pressure;Samples;Min_cycle;Max_cycle;Signal;HPM_P1;HPM_P2
2022/03/02 00:02:16;;;;;;;24.37;15.63;;;;;;;6.09;52.94;95069.56;5073418;28;20183;-77
2022/03/02 00:04:42;;;;;;;24.03;15.47;;;;;;;6.14;52.82;95078.53;5073151;28;20205;-79
2022/03/02 00:07:09;;;;;;;23.77;15.17;;;;;;;6.13;52.75;95071.00;5071785;28;20764;-80
2022/03/02 00:09:36;;;;;;;25.63;15.37;;;;;;;6.12;52.55;95067.63;5072201;28;20201;-78
2022/03/02 00:12:03;;;;;;;21.03;13.63;;;;;;;5.92;52.66;95043.59;5072983;28;20206;-78
2022/03/02 00:14:30;;;;;;;24.87;14.53;;;;;;;5.95;52.75;95045.91;5072739;28;20634;-78
2022/03/02 00:16:58;;;;;;;21.97;14.00;;;;;;;6.00;52.83;95055.75;5072882;28;20195;-79
2022/03/02 00:19:25;;;;;;;23.07;14.33;;;;;;;6.03;52.94;95058.91;5072706;28;20882;-78
2022/03/02 00:21:52;;;;;;;20.30;14.23;;;;;;;6.01;52.97;95059.94;5072833;28;20183;-80
2022/03/02 00:24:20;;;;;;;20.03;12.57;;;;;;;5.98;53.13;95060.94;5073061;28;20191;-79
2022/03/02 00:26:47;;;;;;;20.17;12.80;;;;;;;5.95;53.18;95043.34;5072728;28;20194;-77
2022/03/02 00:29:13;;;;;;;19.50;13.47;;;;;;;5.81;53.10;95027.41;5072694;28;20218;-79
2022/03/02 00:31:40;;;;;;;18.17;13.40;;;;;;;5.91;53.41;95046.97;5072002;28;20683;-79
2022/03/02 00:34:09;;;;;;;21.30;13.43;;;;;;;5.72;53.56;95027.09;5071258;28;20194;-79
2022/03/02 00:36:38;;;;;;;18.50;13.70;;;;;;;5.86;53.43;95045.66;5071970;28;20221;-79
2022/03/02 00:39:06;;;;;;;16.70;12.27;;;;;;;5.83;53.53;95033.16;5071664;28;20186;-78
2022/03/02 00:41:33;;;;;;;19.33;13.67;;;;;;;5.78;53.48;95031.75;5074062;28;20569;-78
2022/03/02 00:44:00;;;;;;;22.53;13.63;;;;;;;5.75;53.56;95031.16;5085797;28;20194;-78
2022/03/02 00:46:29;;;;;;;18.87;12.07;;;;;;;5.70;53.45;95031.47;5083139;28;20666;-78
2022/03/02 00:48:57;;;;;;;18.50;12.70;;;;;;;5.66;53.54;95019.88;5072259;28;20240;-78
2022/03/02 00:51:26;;;;;;;15.33;11.80;;;;;;;5.63;53.53;95019.25;5072345;28;20195;-79
2022/03/02 00:53:53;;;;;;;18.00;12.77;;;;;;;5.42;53.70;94985.94;5072074;28;20201;-80
2022/03/02 00:56:21;;;;;;;18.40;11.87;;;;;;;5.56;53.61;95013.75;5072388;28;20301;-79
2022/03/02 00:58:48;;;;;;;15.30;10.47;;;;;;;5.38;53.57;94981.97;5071867;28;20190;-80
2022/03/02 01:01:15;;;;;;;17.53;12.33;;;;;;;5.48;53.72;95000.75;5072290;28;20198;-78
2022/03/02 01:03:42;;;;;;;18.73;12.07;;;;;;;5.45;53.86;95003.50;5072090;28;20201;-78
2022/03/02 01:06:10;;;;;;;17.10;12.10;;;;;;;5.42;53.92;94999.44;5072034;28;20221;-79
2022/03/02 01:08:38;;;;;;;15.60;11.33;;;;;;;5.33;54.10;94991.63;5072383;28;20214;-81
2022/03/02 01:11:05;;;;;;;18.93;12.83;;;;;;;5.31;54.34;94994.25;5072152;28;20190;-81
2022/03/02 01:13:34;;;;;;;19.13;13.03;;;;;;;5.32;54.64;94997.59;5071932;28;20186;-82
2022/03/02 01:16:01;;;;;;;18.47;12.73;;;;;;;5.26;54.80;94992.00;5072295;28;20250;-83
2022/03/02 01:18:28;;;;;;;18.73;13.03;;;;;;;5.23;54.91;94988.88;5072076;28;20194;-79
2022/03/02 01:20:55;;;;;;;19.13;12.80;;;;;;;5.20;54.99;94992.41;5071689;28;20580;-80
2022/03/02 01:23:22;;;;;;;18.80;12.83;;;;;;;4.94;54.92;94952.69;5071743;28;20183;-80
2022/03/02 01:25:50;;;;;;;21.20;13.97;;;;;;;5.13;55.13;94982.75;5071778;28;20687;-80
2022/03/02 01:28:17;;;;;;;20.00;14.17;;;;;;;5.10;55.32;94993.09;5071576;28;20190;-81
2022/03/02 01:30:44;;;;;;;22.63;14.63;;;;;;;5.07;55.23;94986.47;5071699;28;20198;-81
2022/03/02 01:33:11;;;;;;;20.40;13.60;;;;;;;4.95;55.50;94974.59;5072007;28;20182;-82
2022/03/02 01:35:39;;;;;;;17.77;13.37;;;;;;;4.99;55.64;94981.09;5071727;28;20316;-82
2022/03/02 01:38:05;;;;;;;22.90;13.70;;;;;;;4.56;55.45;94917.09;5071844;28;20578;-83
2022/03/02 01:40:32;;;;;;;19.00;13.60;;;;;;;4.94;55.50;94988.16;5071816;28;20195;-81
2022/03/02 01:43:01;;;;;;;20.73;13.00;;;;;;;4.92;55.53;94984.91;5071653;28;20216;-81
2022/03/02 01:45:27;;;;;;;23.27;14.33;;;;;;;4.52;55.55;94916.47;5071828;28;20186;-79
2022/03/02 01:47:54;;;;;;;22.57;13.00;;;;;;;4.85;55.56;94978.63;5071878;28;20194;-83
2022/03/02 01:50:21;;;;;;;18.97;12.20;;;;;;;4.83;55.50;94976.16;5072102;28;20193;-79
2022/03/02 01:52:48;;;;;;;18.13;12.30;;;;;;;4.80;55.50;94968.78;5071653;28;20190;-83
2022/03/02 01:55:16;;;;;;;15.53;11.93;;;;;;;4.77;55.45;94967.22;5071150;28;20214;-82
2022/03/02 01:57:43;;;;;;;17.97;12.27;;;;;;;4.69;55.57;94963.53;5071627;28;20194;-83
2022/03/02 02:00:14;;;;;;;16.07;10.90;;;;;;;4.25;55.85;94893.69;5072145;28;20201;-82
2022/03/02 02:02:41;;;;;;;18.33;11.47;;;;;;;4.68;55.63;94961.94;5071897;28;20198;-83
2022/03/02 02:05:09;;;;;;;16.03;10.73;;;;;;;4.65;55.61;94964.66;5072870;28;20657;-83
2022/03/02 02:07:35;;;;;;;14.73;10.33;;;;;;;4.57;55.59;94949.91;5072162;28;20229;-82
2022/03/02 02:10:03;;;;;;;14.60;10.77;;;;;;;4.60;55.55;94956.53;5072532;28;20198;-82
2022/03/02 02:12:30;;;;;;;15.77;10.50;;;;;;;4.45;55.48;94933.78;5071368;28;20197;-83
2022/03/02 02:14:57;;;;;;;14.30;9.60;;;;;;;4.56;55.49;94950.03;5071317;28;20196;-83
2022/03/02 02:17:25;;;;;;;15.80;9.93;;;;;;;4.48;55.42;94941.16;5070807;28;20668;-82
2022/03/02 02:19:52;;;;;;;11.23;8.83;;;;;;;4.52;55.45;94949.41;5078862;28;20573;-81
2022/03/02 02:22:20;;;;;;;19.73;9.57;;;;;;;4.49;55.45;94945.34;5075736;28;20255;-81
2022/03/02 02:24:47;;;;;;;11.73;8.33;;;;;;;4.25;55.41;94914.75;5070737;28;20191;-83
2022/03/02 02:27:15;;;;;;;9.60;8.27;;;;;;;4.27;55.35;94917.16;5070697;28;20190;-80
2022/03/02 02:29:43;;;;;;;13.13;8.37;;;;;;;4.43;55.12;94945.72;5071651;28;20194;-81
2022/03/02 02:32:10;;;;;;;12.53;8.43;;;;;;;4.41;55.24;94950.06;5071194;28;20193;-82
2022/03/02 02:34:37;;;;;;;8.73;7.50;;;;;;;4.39;55.14;94946.81;5071500;28;20216;-81
2022/03/02 02:37:06;;;;;;;10.03;7.67;;;;;;;4.33;55.19;94944.66;5071029;28;20276;-79
2022/03/02 02:39:36;;;;;;;11.97;7.47;;;;;;;4.35;55.07;94939.50;5070311;28;20194;-82
2022/03/02 02:42:05;;;;;;;9.57;7.03;;;;;;;4.11;55.14;94903.84;5070964;28;20219;-82
2022/03/02 02:44:32;;;;;;;9.03;7.17;;;;;;;4.02;54.89;94895.91;5070517;28;20672;-82
2022/03/02 02:47:00;;;;;;;9.17;6.50;;;;;;;4.29;55.07;94948.28;5071313;28;20277;-80
2022/03/02 02:49:28;;;;;;;9.50;6.90;;;;;;;4.27;54.84;94947.53;5070498;28;20186;-81
2022/03/02 02:51:55;;;;;;;9.07;7.17;;;;;;;3.83;54.84;94870.09;5070529;28;20190;-80
2022/03/02 02:54:21;;;;;;;8.60;6.80;;;;;;;4.25;54.83;94941.78;5069991;28;20197;-82
2022/03/02 02:56:50;;;;;;;9.60;7.30;;;;;;;4.16;54.82;94937.28;5070412;28;20206;-80
2022/03/02 02:59:17;;;;;;;7.33;6.60;;;;;;;4.20;54.73;94951.38;5070851;28;20653;-81
2022/03/02 03:01:43;;;;;;;7.13;6.43;;;;;;;4.03;54.60;94922.81;5073647;28;20194;-81
2022/03/02 03:04:12;;;;;;;8.43;6.30;;;;;;;4.16;54.71;94944.88;5074850;28;20202;-81
2022/03/02 03:06:38;;;;;;;7.60;6.53;;;;;;;4.15;54.79;94940.72;5074892;28;20222;-80
2022/03/02 03:09:05;;;;;;;8.80;6.87;;;;;;;4.14;54.69;94944.13;5074332;28;20664;-79
2022/03/02 03:11:34;;;;;;;8.07;6.30;;;;;;;4.11;54.79;94939.28;5075030;28;20205;-81
2022/03/02 03:14:08;;;;;;;7.33;6.50;;;;;;;4.08;54.50;94936.91;5074674;28;20200;-80
2022/03/02 03:16:35;;;;;;;8.90;6.63;;;;;;;4.08;54.85;94942.00;5074583;28;20225;-82
2022/03/02 03:19:02;;;;;;;7.93;6.43;;;;;;;3.99;54.56;94928.97;5074713;28;20968;-79
2022/03/02 03:21:29;;;;;;;6.77;5.80;;;;;;;4.06;54.66;94938.72;5073976;28;20190;-81
2022/03/02 03:23:56;;;;;;;7.60;6.27;;;;;;;4.04;54.70;94941.34;5075004;28;20190;-82
2022/03/02 03:26:23;;;;;;;9.33;7.13;;;;;;;4.05;54.68;94942.16;5074853;28;20190;-79
2022/03/02 03:28:50;;;;;;;7.37;6.40;;;;;;;3.97;54.89;94924.91;5075013;28;20194;-81
2022/03/02 03:31:18;;;;;;;7.83;6.03;;;;;;;3.99;54.98;94938.28;5073984;28;20194;-80
2022/03/02 03:33:45;;;;;;;7.87;7.07;;;;;;;4.08;54.85;94942.00;5074390;28;20228;-81
2022/03/02 03:36:12;;;;;;;7.30;6.43;;;;;;;4.10;54.99;94935.09;5073847;28;20214;-83
2022/03/02 03:38:39;;;;;;;7.77;6.90;;;;;;;4.14;54.97;94934.00;5074999;28;20194;-82
2022/03/02 03:41:07;;;;;;;7.70;6.90;;;;;;;4.17;54.95;94937.16;5074795;28;20190;-80
2022/03/02 03:43:34;;;;;;;7.63;6.70;;;;;;;4.21;54.86;94941.16;5075877;28;20189;-83
2022/03/02 03:46:00;;;;;;;7.73;6.60;;;;;;;4.15;54.86;94921.28;5074535;28;20198;-81
2022/03/02 03:48:29;;;;;;;7.90;6.97;;;;;;;4.28;55.24;94931.47;5074378;28;20190;-82
2022/03/02 03:50:55;;;;;;;8.60;6.63;;;;;;;4.31;55.04;94933.00;5074181;28;20194;-82
2022/03/02 03:53:22;;;;;;;7.87;6.20;;;;;;;4.16;55.03;94904.38;5074920;28;20182;-81
2022/03/02 03:55:49;;;;;;;7.57;6.70;;;;;;;4.31;55.06;94916.06;5086415;28;20190;-77
2022/03/02 03:58:16;;;;;;;7.73;5.93;;;;;;;4.42;55.17;94926.38;5086380;28;20250;-80
2022/03/02 04:00:43;;;;;;;7.73;6.77;;;;;;;4.47;54.98;94926.06;5085918;28;20195;-79
2022/03/02 04:03:11;;;;;;;12.77;7.13;;;;;;;4.24;55.08;94887.00;5074130;28;20198;-81
2022/03/02 04:05:39;;;;;;;8.40;6.50;;;;;;;4.53;55.02;94929.06;5072688;28;20698;-81
2022/03/02 04:08:06;;;;;;;7.57;6.17;;;;;;;4.21;55.11;94875.34;5073225;28;20187;-81
2022/03/02 04:10:33;;;;;;;7.17;6.23;;;;;;;4.59;55.08;94927.03;5073273;28;20187;-84
2022/03/02 04:13:00;;;;;;;8.60;6.93;;;;;;;4.61;55.20;94927.75;5072032;28;20670;-81
2022/03/02 04:15:26;;;;;;;7.83;6.50;;;;;;;4.63;55.34;94928.47;5073010;28;20192;-80
2022/03/02 04:17:53;;;;;;;7.30;6.10;;;;;;;4.68;55.49;94926.47;5072489;28;20728;-81
2022/03/02 04:20:21;;;;;;;9.17;6.53;;;;;;;4.69;55.52;94926.34;5073661;28;20195;-82
2022/03/02 04:22:49;;;;;;;7.20;6.03;;;;;;;4.72;55.54;94921.13;5072221;28;20681;-81
2022/03/02 04:25:16;;;;;;;7.80;6.30;;;;;;;4.75;55.46;94922.66;5073090;28;20193;-82
2022/03/02 04:27:43;;;;;;;9.83;6.87;;;;;;;4.48;55.77;94869.47;5072770;28;20194;-81
2022/03/02 04:30:11;;;;;;;7.93;6.53;;;;;;;4.73;55.62;94906.72;5073265;28;20687;-82
2022/03/02 04:32:38;;;;;;;6.10;5.50;;;;;;;4.72;55.99;94897.50;5072497;28;20194;-79
2022/03/02 04:35:07;;;;;;;9.23;6.53;;;;;;;4.86;55.58;94916.88;5072545;28;20198;-83
2022/03/02 04:37:34;;;;;;;6.73;5.97;;;;;;;4.88;55.64;94923.50;5072169;28;20218;-84
2022/03/02 04:40:02;;;;;;;6.60;5.93;;;;;;;4.76;55.62;94894.69;5072805;28;20182;-82
2022/03/02 04:42:29;;;;;;;8.43;6.53;;;;;;;4.67;55.82;94871.66;5076280;28;20178;-81
2022/03/02 04:44:56;;;;;;;9.03;6.63;;;;;;;4.44;55.81;94838.44;5088532;28;20194;-81
2022/03/02 04:47:22;;;;;;;7.60;6.30;;;;;;;4.98;55.89;94916.13;5083612;28;20194;-80
2022/03/02 04:49:49;;;;;;;8.60;7.00;;;;;;;4.94;55.77;94902.81;5073865;28;20193;-83
2022/03/02 04:52:16;;;;;;;7.67;6.63;;;;;;;5.03;55.90;94911.56;5072500;28;20628;-82
2022/03/02 04:57:29;;;;;;;8.17;6.70;;;;;;;5.07;55.78;94922.31;5071764;28;20217;-78
2022/03/02 04:59:56;;;;;;;7.43;5.87;;;;;;;5.07;55.86;94920.59;5071610;28;20281;-80
2022/03/02 05:02:22;;;;;;;7.63;6.83;;;;;;;5.00;55.77;94897.34;5071846;28;20191;-78
2022/03/02 05:04:50;;;;;;;6.97;6.27;;;;;;;5.10;55.96;94911.97;5071966;28;20201;-80
2022/03/02 05:07:17;;;;;;;9.73;6.70;;;;;;;5.12;55.91;94910.16;5071984;28;20631;-78
2022/03/02 05:09:45;;;;;;;6.93;6.20;;;;;;;4.60;55.81;94824.81;5071026;28;20186;-81
2022/03/02 05:12:12;;;;;;;8.37;5.83;;;;;;;5.15;55.98;94904.88;5071550;28;20676;-80
2022/03/02 05:14:40;;;;;;;8.00;6.43;;;;;;;4.80;56.02;94853.97;5071351;28;20186;-81
2022/03/02 05:17:07;;;;;;;6.97;6.23;;;;;;;5.17;56.05;94911.47;5071633;28;20698;-78
2022/03/02 05:19:35;;;;;;;8.47;6.70;;;;;;;5.19;56.09;94913.91;5071331;28;20719;-82
2022/03/02 05:22:02;;;;;;;7.40;6.10;;;;;;;5.14;56.19;94891.41;5071114;28;20202;-80
2022/03/02 05:24:29;;;;;;;8.77;6.10;;;;;;;5.26;56.20;94907.50;5073464;28;20199;-80
2022/03/02 05:26:56;;;;;;;9.43;7.00;;;;;;;5.27;56.13;94907.44;5079831;28;20195;-85
2022/03/02 05:29:23;;;;;;;7.40;6.53;;;;;;;5.30;56.30;94901.34;5073265;28;20633;-81
2022/03/02 05:31:54;;;;;;;7.23;6.37;;;;;;;5.04;56.35;94857.41;5071215;28;20186;-80
2022/03/02 05:34:22;;;;;;;7.60;6.73;;;;;;;5.37;56.40;94904.28;5054824;28;20621;-83
2022/03/02 05:36:48;;;;;;;7.47;6.13;;;;;;;5.27;56.49;94888.88;5048884;28;20232;-81
2022/03/02 05:39:15;;;;;;;8.03;6.47;;;;;;;5.29;56.37;94885.31;5049280;28;20214;-82
2022/03/02 05:41:42;;;;;;;7.77;6.97;;;;;;;5.48;56.41;94912.81;5066513;28;20209;-82
2022/03/02 05:44:09;;;;;;;7.50;6.73;;;;;;;5.30;56.45;94881.06;5069474;28;20657;-81
2022/03/02 05:46:36;;;;;;;8.03;6.87;;;;;;;5.57;56.25;94916.47;5070709;28;20225;-82
2022/03/02 05:49:05;;;;;;;7.93;6.67;;;;;;;5.63;56.36;94912.72;5069854;28;20186;-85
2022/03/02 05:51:33;;;;;;;7.77;6.97;;;;;;;5.49;56.15;94886.53;5072294;28;20194;-83
2022/03/02 05:54:00;;;;;;;9.43;6.93;;;;;;;5.74;56.16;94913.63;5070481;28;20194;-82
2022/03/02 05:56:26;;;;;;;10.53;6.87;;;;;;;5.80;56.13;94909.84;5069070;28;20189;-82
2022/03/02 05:58:53;;;;;;;7.97;6.73;;;;;;;5.79;56.05;94893.81;5069464;28;20723;-78
2022/03/02 06:01:20;;;;;;;7.37;6.57;;;;;;;5.71;55.93;94877.50;5069479;28;20197;-78
2022/03/02 06:03:49;;;;;;;8.50;7.27;;;;;;;5.78;55.70;94878.69;5070715;28;20187;-79
2022/03/02 06:06:17;;;;;;;8.03;7.00;;;;;;;5.81;55.83;94872.59;5067794;28;20226;-82
2022/03/02 06:08:45;;;;;;;9.07;7.37;;;;;;;6.13;55.71;94916.09;5068126;28;20197;-79
2022/03/02 06:11:15;;;;;;;11.97;7.87;;;;;;;5.73;55.72;94852.81;5067939;28;20194;-80
2022/03/02 06:13:42;;;;;;;9.70;7.90;;;;;;;6.02;55.38;94883.84;5066787;28;20291;-76
2022/03/02 06:16:10;;;;;;;9.10;7.47;;;;;;;6.22;55.61;94912.97;5068276;28;20669;-82
2022/03/02 06:18:37;;;;;;;10.30;7.40;;;;;;;6.34;55.27;94916.38;5068277;28;20222;-81
2022/03/02 06:21:05;;;;;;;8.97;8.00;;;;;;;6.39;55.46;94924.47;5068504;28;20178;-82
2022/03/02 06:23:34;;;;;;;8.40;7.37;;;;;;;6.42;55.09;94924.25;5068190;28;20635;-82
2022/03/02 06:26:01;;;;;;;10.93;7.90;;;;;;;6.45;55.29;94924.88;5067586;28;20197;-81
2022/03/02 06:28:28;;;;;;;9.40;8.37;;;;;;;6.49;55.27;94911.03;5068205;28;20194;-84
2022/03/02 06:30:55;;;;;;;9.07;7.83;;;;;;;6.40;55.04;94891.34;5068004;28;20202;-80
2022/03/02 06:33:22;;;;;;;9.30;7.57;;;;;;;6.46;55.23;94887.56;5067409;28;20178;-79
2022/03/02 06:35:49;;;;;;;5.47;4.70;;;;;;;6.94;100.00;94892.63;5068228;28;20199;-79
2022/03/02 06:38:17;;;;;;;8.30;7.40;;;;;;;7.65;98.22;94906.06;5068179;28;20241;-79
2022/03/02 06:41:01;;;;;;;7.63;6.80;;;;;;;7.90;89.23;94910.09;5069196;28;20190;-78
2022/03/02 06:43:34;;;;;;;9.17;7.17;;;;;;;7.96;83.89;94905.38;5067366;28;20632;-84
2022/03/02 06:46:07;;;;;;;9.00;7.30;;;;;;;7.98;79.36;94908.59;5061189;28;20186;-85
2022/03/02 06:48:42;;;;;;;9.53;7.07;;;;;;;7.97;75.11;94912.09;5064936;28;20263;-79
2022/03/02 06:51:15;;;;;;;9.33;7.50;;;;;;;7.96;71.72;94915.56;5063606;28;20217;-80
2022/03/02 06:53:45;;;;;;;9.10;7.40;;;;;;;7.94;69.43;94907.22;5067507;28;20237;-79
2022/03/02 06:56:13;;;;;;;5.97;4.73;;;;;;;8.45;100.00;94905.91;5068116;28;20194;-79
2022/03/02 06:58:42;;;;;;;4.83;4.43;;;;;;;9.42;100.00;94896.47;5067352;28;20221;-79
2022/03/02 07:01:11;;;;;;;5.53;4.30;;;;;;;10.42;95.05;94896.63;5068190;28;20291;-80
2022/03/02 07:03:45;;;;;;;8.07;5.03;;;;;;;11.38;88.07;94892.47;5067773;28;20187;-79
2022/03/02 07:06:13;;;;;;;4.60;4.17;;;;;;;12.21;82.53;94893.41;5066917;28;20218;-80
2022/03/02 07:08:45;;;;;;;4.63;4.23;;;;;;;12.54;77.88;94836.41;5067113;28;20252;-77
2022/03/02 07:11:15;;;;;;;6.13;4.57;;;;;;;13.61;74.93;94888.63;5063275;28;20698;-78
2022/03/02 07:13:42;;;;;;;7.33;4.37;;;;;;;13.93;71.92;94847.66;5059851;28;20202;-78
2022/03/02 07:16:09;;;;;;;4.60;4.20;;;;;;;14.69;69.23;94895.69;5057745;28;20191;-78
2022/03/02 07:18:36;;;;;;;6.00;4.30;;;;;;;15.15;66.92;94887.53;5063581;28;20226;-77
2022/03/02 07:21:05;;;;;;;6.33;4.57;;;;;;;15.56;64.60;94883.16;5060517;28;20260;-77
2022/03/02 07:23:35;;;;;;;4.50;4.10;;;;;;;15.90;62.58;94882.97;5057707;28;20210;-76
2022/03/02 07:26:02;;;;;;;7.17;5.40;;;;;;;16.15;61.09;94877.69;5053923;28;20218;-79
2022/03/02 07:28:33;;;;;;;7.83;7.03;;;;;;;16.11;58.38;94866.13;5063205;28;20191;-79
2022/03/02 07:31:00;;;;;;;8.87;6.87;;;;;;;15.77;55.07;94857.69;5066889;28;20191;-80
2022/03/02 07:33:30;;;;;;;10.07;7.77;;;;;;;14.66;53.05;94744.13;5060069;28;20198;-80
2022/03/02 07:36:00;;;;;;;7.73;6.93;;;;;;;15.09;51.75;94875.28;5059754;28;20216;-78
2022/03/02 07:38:27;;;;;;;10.90;8.07;;;;;;;14.47;50.77;94845.59;5057933;28;20237;-81
2022/03/02 07:40:54;;;;;;;8.83;8.00;;;;;;;14.25;49.89;94875.28;5062628;28;20194;-83
2022/03/02 07:43:22;;;;;;;10.03;8.17;;;;;;;13.58;49.56;94829.81;5060601;28;20187;-81
2022/03/02 07:45:51;;;;;;;9.63;8.47;;;;;;;13.43;48.98;94863.78;5061587;28;20190;-80
2022/03/02 07:48:18;;;;;;;9.63;8.47;;;;;;;13.14;48.57;94873.50;5064799;28;20203;-80
2022/03/02 07:50:47;;;;;;;11.53;8.73;;;;;;;12.67;48.22;94854.00;5064931;28;20197;-83
2022/03/02 07:53:17;;;;;;;10.63;8.53;;;;;;;12.44;48.08;94860.53;5066076;28;20286;-77
2022/03/02 07:55:46;;;;;;;13.17;9.47;;;;;;;12.12;47.93;94855.81;5066877;28;20226;-78
2022/03/02 07:58:18;;;;;;;11.20;9.27;;;;;;;11.86;48.05;94858.25;5062944;28;20222;-79
2022/03/02 08:00:50;;;;;;;10.80;8.70;;;;;;;11.37;48.03;94819.97;5066574;28;20214;-79
2022/03/02 08:03:20;;;;;;;11.70;9.40;;;;;;;11.40;48.01;94852.97;5054631;28;20199;-76
2022/03/02 08:05:47;;;;;;;10.60;9.07;;;;;;;11.35;48.00;94869.69;5061803;28;20192;-76
2022/03/02 08:08:16;;;;;;;9.63;8.60;;;;;;;11.18;48.11;94866.06;5064240;28;20203;-77
2022/03/02 08:10:44;;;;;;;10.83;8.77;;;;;;;11.04;48.18;94864.75;5068767;28;20194;-76
2022/03/02 08:13:12;;;;;;;10.33;8.63;;;;;;;10.83;48.32;94849.53;5065279;28;20191;-74
2022/03/02 08:15:41;;;;;;;11.27;9.50;;;;;;;10.63;48.46;94841.06;5068091;28;20197;-79
2022/03/02 08:18:08;;;;;;;11.43;9.60;;;;;;;10.37;48.35;94809.31;5067889;28;20222;-77
2022/03/02 08:20:41;;;;;;;10.13;9.07;;;;;;;10.36;48.26;94823.81;5067986;28;20281;-75
2022/03/02 08:23:09;;;;;;;11.73;10.13;;;;;;;10.51;48.39;94865.16;5066095;28;20205;-77
2022/03/02 08:25:36;;;;;;;11.77;8.20;;;;;;;10.22;48.63;94832.63;5065998;28;20202;-77
2022/03/02 08:28:09;;;;;;;15.33;9.87;;;;;;;10.38;48.38;94867.97;5060139;28;20191;-76
2022/03/02 08:30:38;;;;;;;13.23;9.60;;;;;;;10.24;48.56;94851.25;5059436;28;20187;-77
2022/03/02 08:33:05;;;;;;;10.13;8.30;;;;;;;10.24;48.38;94863.19;5059990;28;20742;-77
2022/03/02 08:35:35;;;;;;;11.60;9.67;;;;;;;10.18;48.53;94853.47;5067064;28;20186;-78
2022/03/02 08:38:03;;;;;;;12.63;9.90;;;;;;;9.85;48.16;94798.44;5063498;28;20283;-76
2022/03/02 08:40:30;;;;;;;10.90;9.80;;;;;;;10.15;48.39;94846.91;5057307;28;20187;-78
2022/03/02 08:43:00;;;;;;;10.63;9.17;;;;;;;10.20;48.37;94849.88;5072558;28;20201;-77
2022/03/02 08:45:27;;;;;;;12.10;9.73;;;;;;;10.19;48.33;94832.94;5067723;28;20191;-76
2022/03/02 08:47:54;;;;;;;11.57;10.37;;;;;;;10.20;48.26;94814.09;5061328;28;20197;-76
2022/03/02 08:50:22;;;;;;;12.80;9.97;;;;;;;10.33;48.20;94826.66;5068081;28;20248;-77
2022/03/02 08:52:53;;;;;;;13.17;10.10;;;;;;;10.49;48.08;94829.50;5063933;28;20198;-77
2022/03/02 08:55:22;;;;;;;12.70;9.70;;;;;;;10.38;47.81;94793.81;5065442;28;20190;-77
2022/03/02 08:57:50;;;;;;;13.77;10.23;;;;;;;10.79;47.83;94830.28;5064444;28;20229;-78
2022/03/02 09:00:17;;;;;;;13.23;9.70;;;;;;;10.94;47.69;94828.13;5064586;28;20205;-78
2022/03/02 09:02:47;;;;;;;14.07;10.53;;;;;;;10.86;47.45;94792.19;5062796;28;20286;-79
2022/03/02 09:05:14;;;;;;;13.60;10.17;;;;;;;11.21;47.46;94832.53;5067662;28;20193;-79
2022/03/02 09:07:42;;;;;;;11.03;9.27;;;;;;;11.34;47.19;94827.91;5059925;28;20238;-78
2022/03/02 09:10:10;;;;;;;12.30;10.83;;;;;;;11.39;46.97;94812.94;5063128;28;20197;-77
2022/03/02 09:12:39;;;;;;;12.37;9.87;;;;;;;11.55;46.66;94813.16;5067226;28;20187;-77
2022/03/02 09:15:07;;;;;;;13.20;9.43;;;;;;;11.68;46.56;94812.84;5062099;28;20675;-76
2022/03/02 09:17:35;;;;;;;12.20;10.07;;;;;;;11.79;46.47;94814.44;5062838;28;20233;-78
2022/03/02 09:20:02;;;;;;;12.13;10.23;;;;;;;11.76;46.32;94795.00;5064332;28;20233;-76
2022/03/02 09:22:31;;;;;;;15.77;11.37;;;;;;;12.08;45.71;94805.78;5064280;28;20261;-76
2022/03/02 09:24:58;;;;;;;13.27;10.30;;;;;;;12.25;45.65;94812.69;5061085;28;20190;-76
2022/03/02 09:27:27;;;;;;;14.97;10.57;;;;;;;12.44;45.35;94810.03;5067299;28;20197;-77
2022/03/02 09:29:59;;;;;;;10.97;9.63;;;;;;;12.70;45.02;94799.03;5059824;28;20233;-76
2022/03/02 09:32:27;;;;;;;11.30;10.00;;;;;;;12.98;44.57;94797.13;5058180;28;20182;-78
2022/03/02 09:34:57;;;;;;;11.77;9.40;;;;;;;13.06;44.35;94771.53;5061986;28;20193;-77
2022/03/02 09:37:25;;;;;;;11.13;9.37;;;;;;;13.46;44.00;94788.16;5063175;28;20191;-76
2022/03/02 09:39:52;;;;;;;11.50;10.13;;;;;;;13.70;43.50;94790.84;5061811;28;20187;-77
2022/03/02 09:42:25;;;;;;;11.80;10.47;;;;;;;13.90;43.20;94796.53;5062470;28;20183;-76
2022/03/02 09:44:59;;;;;;;13.57;10.70;;;;;;;14.09;42.92;94790.34;5062091;28;20236;-76
2022/03/02 09:47:37;;;;;;;13.10;10.37;;;;;;;14.28;42.46;94787.47;5061129;28;20634;-75
2022/03/02 09:50:05;;;;;;;10.93;9.80;;;;;;;14.37;41.90;94770.28;5065740;28;20191;-78
2022/03/02 09:52:34;;;;;;;11.50;10.13;;;;;;;14.59;41.65;94783.53;5063813;28;20182;-74
2022/03/02 09:55:01;;;;;;;12.57;11.13;;;;;;;14.68;41.56;94772.28;5058831;28;20201;-76
2022/03/02 09:57:28;;;;;;;11.73;10.43;;;;;;;14.79;41.40;94782.25;5064475;28;20195;-77
2022/03/02 09:59:58;;;;;;;14.70;10.77;;;;;;;14.75;41.20;94771.47;5052271;28;20195;-74
2022/03/02 10:02:36;;;;;;;15.00;11.47;;;;;;;14.80;40.99;94789.81;5057042;28;20193;-75
2022/03/02 10:05:06;;;;;;;12.73;11.17;;;;;;;14.74;41.24;94776.78;5061357;28;20231;-76
2022/03/02 10:07:37;;;;;;;12.20;10.90;;;;;;;14.67;41.05;94779.19;5062527;28;20636;-76
2022/03/02 10:10:08;;;;;;;11.70;10.50;;;;;;;14.61;41.10;94768.75;5057948;28;20222;-75
2022/03/02 10:12:35;;;;;;;13.70;10.60;;;;;;;14.48;40.92;94749.44;5061844;28;20263;-75
2022/03/02 10:15:06;;;;;;;17.33;12.20;;;;;;;14.64;40.74;94765.88;5062362;28;20225;-75
2022/03/02 10:17:35;;;;;;;16.77;12.87;;;;;;;14.66;40.55;94753.63;5058383;28;20654;-75
2022/03/02 10:20:06;;;;;;;14.43;11.73;;;;;;;14.69;40.56;94755.88;5061075;28;20273;-75
2022/03/02 10:22:57;;;;;;;16.57;12.20;;;;;;;14.71;40.22;94749.59;5061415;28;20183;-75
2022/03/02 10:25:36;;;;;;;15.50;11.33;;;;;;;14.78;39.95;94750.56;5062091;28;20188;-75
2022/03/02 10:28:06;;;;;;;18.00;11.90;;;;;;;14.69;39.92;94730.94;5063422;28;20178;-75
2022/03/02 10:30:37;;;;;;;13.10;10.93;;;;;;;14.86;39.55;94749.75;5059144;28;20198;-78
2022/03/02 10:33:18;;;;;;;14.90;11.43;;;;;;;14.77;39.63;94725.00;5067496;28;20182;-78
2022/03/02 10:35:51;;;;;;;12.90;10.83;;;;;;;14.93;39.39;94737.03;5061617;28;20205;-77
2022/03/02 10:38:29;;;;;;;12.80;10.80;;;;;;;14.95;39.48;94729.97;5058360;28;20267;-75
2022/03/02 10:41:00;;;;;;;14.20;11.07;;;;;;;14.97;39.29;94728.00;5061522;28;20179;-76
2022/03/02 10:43:39;;;;;;;12.23;10.43;;;;;;;14.86;39.45;94706.00;5057379;28;20223;-76
2022/03/02 10:46:10;;;;;;;13.67;11.40;;;;;;;14.84;39.17;94700.19;5065458;28;20688;-78
2022/03/02 10:48:42;;;;;;;12.57;10.70;;;;;;;14.95;39.27;94717.88;5069349;28;20201;-76
2022/03/02 10:51:11;;;;;;;13.33;10.00;;;;;;;14.96;39.16;94714.34;5062601;28;20619;-77
2022/03/02 10:53:40;;;;;;;12.07;10.17;;;;;;;14.77;39.08;94678.66;5060615;28;20194;-75
2022/03/02 10:56:09;;;;;;;12.47;10.43;;;;;;;15.01;38.99;94704.34;5064155;28;20251;-76
2022/03/02 10:58:38;;;;;;;12.93;10.13;;;;;;;15.04;38.74;94700.63;5063717;28;21630;-79
2022/03/02 11:01:07;;;;;;;10.57;9.43;;;;;;;15.01;38.83;94693.22;5063010;28;20222;-78
2022/03/02 11:03:37;;;;;;;10.53;9.33;;;;;;;15.01;38.68;94688.09;5065088;28;20201;-79
2022/03/02 11:06:06;;;;;;;11.17;9.60;;;;;;;14.98;38.57;94683.25;5058215;28;20226;-78
2022/03/02 11:08:35;;;;;;;15.27;11.27;;;;;;;14.91;38.46;94683.13;5064293;28;20297;-79
2022/03/02 11:11:02;;;;;;;14.50;11.17;;;;;;;14.90;38.64;94678.16;5059086;28;20233;-74
2022/03/02 11:13:29;;;;;;;11.67;10.10;;;;;;;14.86;38.55;94682.03;5064155;28;20657;-75
2022/03/02 11:15:59;;;;;;;12.70;9.37;;;;;;;14.61;38.32;94637.50;5061769;28;20581;-75
2022/03/02 11:18:35;;;;;;;10.77;9.67;;;;;;;14.71;38.31;94658.69;5065473;28;20236;-76
2022/03/02 11:21:04;;;;;;;13.70;9.43;;;;;;;14.78;38.36;94657.88;5063519;28;20585;-79
2022/03/02 11:23:35;;;;;;;13.20;10.20;;;;;;;14.72;38.30;94657.72;5066171;28;20232;-76
2022/03/02 11:26:11;;;;;;;11.47;8.87;;;;;;;14.52;38.29;94636.69;5065335;28;20709;-77
2022/03/02 11:28:39;;;;;;;10.23;9.00;;;;;;;14.55;38.19;94638.97;5068777;28;20190;-76
2022/03/02 11:31:07;;;;;;;13.77;10.07;;;;;;;14.57;38.55;94644.72;5060851;28;20195;-75
2022/03/02 11:33:36;;;;;;;13.43;9.60;;;;;;;14.48;38.37;94631.06;5064980;28;20190;-76
2022/03/02 11:36:10;;;;;;;12.10;9.50;;;;;;;14.35;38.05;94612.72;5067065;28;20202;-75
2022/03/02 11:38:41;;;;;;;11.63;9.67;;;;;;;14.38;38.02;94609.00;5066064;28;20207;-75
2022/03/02 11:41:09;;;;;;;10.70;9.37;;;;;;;14.47;38.09;94636.34;5062762;28;20252;-75